Terminal Aerodrome Forecast
Issued by NWS Quad Cities IA IL

Home | Current Version | Previous Version | Text Only | Print | Product List | Glossary On
Versions: 1 2 3 4 5 6 7 8 9 10 11 12 13 14 15 16 17 18 19 20 21 22 23 24 25 26 27 28 29
000
FTUS43 KDVN 231700
TAFMLI
TAF
KMLI 231720Z 2318/2418 16010KT 5SM -RA BR BKN015 OVC040
      TEMPO 2318/2320 2SM RA BR BKN008 OVC015
     FM232000 15010KT 2SM -RA BR OVC008
     FM240000 12005KT 3/4SM -RADZ BR OVC005
     FM240600 31014G20KT 3SM -RADZ BR OVC008
     FM241200 32017G26KT 1SM -SN BR OVC007=

USA.gov is the U.S. government's official web portal to all federal, state and local government web resources and services.